Aviation WX

[Source: ADDS]
METAR
KFKL 230401Z AUTO 04003KT 3SM BR SCT001 11/10 A3023 RMK AO2 =
KFKL 230359Z 2304/2324 02005KT 2SM BR BKN003 TEMPO 2304/2306 6SM SCT003 FM231000 06003KT 1SM BR SCT025 FM231200 06003KT 3SM BR BKN020 FM231400 07004KT P6SM SCT040 BKN120
TAF
KFKL 230359Z 2304/2324 02005KT 2SM BR BKN003 TEMPO 2304/2306 6SM SCT003 FM231000 06003KT 1SM BR SCT025 FM231200 06003KT 3SM BR BKN020 FM231400 07004KT P6SM SCT040 BKN120 =

Clarion Airport T-Shirts

small

Open House

Open House Weekend

                                                                                                                                                                                                                                                                                                                                                                                                                                                                                  

                                                                                                                                               

                 There will be no Air Show or Open House in 2017 due to ramp construction this summer.                                                               

                                                                                                                                                                           

Please Support Our  2016 Sponsors

Sweet Basil and Jacks Salotto

American Legion Post 066 Clarion PA

American Legion Knox, PA

Lamar Outdoor Advertising

Mega Rock 105.5 & 100.5

Pittsburgh Institute of Aeronautics

Clarion County Economic Development Corp.

Eric Shick - Nationwide Insurance 

Tri-County Homes

ExploreClarion.com - ExploreVenango.com - ExploreJefferson.com

Terra Works

Farmers National Bank

Kool 103.3

WUZZ 107.7, 94.3 

RRR Roadhouse, Clarion Mall

Plyler's Family Restaurant, Brookville PA

Wolf's Auto Outlet, Shippenville & Dubois 

Clarion County Rod and Gun Club

Rustler Sales and Service, Shippenville PA

Pennsylvania American Water 

Kriebel Productions

Sarvey Insurance, Brookville PA

D. G. Yuengling and Son Brewery

Jeffs Preformance Plus

Burns & Burns Associates, Inc.  Clarion PA

U.S. Army

Gatesman Auto Body, Lucinda PA